Time;durP1;ratioP1;P1;durP2;ratioP2;P2;SDS_P1;SDS_P2;PMS_P1;PMS_P2;Temp;Humidity;BMP_temperature;BMP_pressure;BME280_temperature;BME280_humidity;BME280_pressure;Samples;Min_cycle;Max_cycle;Signal;HPM_P1;HPM_P2
2022/05/31 00:01:37;;;;;;;3.47;2.40;;;12.90;65.50;;;;;;5023779;28;20984;-45
2022/05/31 00:04:04;;;;;;;4.90;3.73;;;12.90;65.50;;;;;;5005908;28;21481;-45
2022/05/31 00:06:31;;;;;;;7.17;5.37;;;12.90;65.50;;;;;;5007651;28;20463;-45
2022/05/31 00:08:57;;;;;;;7.13;6.53;;;12.90;65.60;;;;;;5021681;28;20466;-45
2022/05/31 00:11:25;;;;;;;7.00;6.37;;;12.90;65.60;;;;;;5025891;28;20482;-45
2022/05/31 00:13:51;;;;;;;5.90;5.33;;;12.90;65.70;;;;;;5026215;28;20498;-45
2022/05/31 00:16:18;;;;;;;5.33;4.83;;;12.90;65.60;;;;;;5022232;28;20459;-45
2022/05/31 00:18:46;;;;;;;5.33;4.90;;;13.00;65.50;;;;;;5027164;28;20932;-45
2022/05/31 00:21:13;;;;;;;4.70;4.30;;;13.00;65.60;;;;;;5022082;28;20462;-45
2022/05/31 00:23:41;;;;;;;5.53;3.67;;;13.00;65.70;;;;;;5025309;28;20458;-45
2022/05/31 00:26:09;;;;;;;3.70;3.37;;;13.00;65.80;;;;;;5006603;28;20581;-45
2022/05/31 00:28:35;;;;;;;3.93;3.00;;;13.00;65.80;;;;;;5025253;28;21019;-46
2022/05/31 00:31:03;;;;;;;4.13;3.43;;;13.00;65.80;;;;;;5024997;28;20498;-45
2022/05/31 00:33:30;;;;;;;3.20;2.90;;;13.00;65.80;;;;;;5024730;28;21409;-45
2022/05/31 00:35:57;;;;;;;3.40;3.10;;;13.00;65.70;;;;;;5022308;28;20466;-45
2022/05/31 00:38:23;;;;;;;3.93;2.83;;;13.00;65.90;;;;;;5021767;28;20490;-45
2022/05/31 00:40:50;;;;;;;3.57;2.73;;;13.00;65.80;;;;;;5027287;28;20550;-45
2022/05/31 00:43:23;;;;;;;3.13;2.83;;;13.00;65.90;;;;;;5023863;28;20494;-45
2022/05/31 00:45:59;;;;;;;3.40;3.00;;;13.00;66.00;;;;;;5024310;28;20459;-45
2022/05/31 00:48:30;;;;;;;3.67;2.40;;;13.00;66.10;;;;;;5024518;28;20470;-45
2022/05/31 00:51:13;;;;;;;3.47;2.40;;;13.00;66.00;;;;;;5024543;28;20470;-45
2022/05/31 00:53:54;;;;;;;7.00;2.70;;;13.00;66.00;;;;;;5023622;28;20492;-45
2022/05/31 00:56:26;;;;;;;2.93;2.63;;;13.00;66.20;;;;;;5023569;28;20489;-45
2022/05/31 00:59:01;;;;;;;6.57;2.70;;;12.90;66.30;;;;;;5025612;28;20520;-45
2022/05/31 01:01:33;;;;;;;2.60;2.07;;;12.90;66.40;;;;;;5025062;28;20490;-45
2022/05/31 01:04:01;;;;;;;2.70;2.50;;;12.90;66.20;;;;;;5008989;28;20474;-45
2022/05/31 01:06:28;;;;;;;3.23;2.03;;;12.90;66.20;;;;;;5021909;28;20856;-45
2022/05/31 01:08:57;;;;;;;2.60;2.40;;;12.90;65.90;;;;;;5024600;28;21019;-45
2022/05/31 01:11:30;;;;;;;2.27;2.07;;;12.90;65.30;;;;;;5024912;28;20481;-45
2022/05/31 01:13:58;;;;;;;2.77;2.40;;;13.00;65.50;;;;;;5023132;28;20490;-45
2022/05/31 01:16:25;;;;;;;2.17;1.97;;;13.00;64.80;;;;;;4995966;28;20467;-45
2022/05/31 01:18:54;;;;;;;3.97;1.90;;;13.00;65.00;;;;;;5022938;28;20542;-45
2022/05/31 01:21:21;;;;;;;2.00;1.70;;;13.00;65.20;;;;;;5025897;28;20519;-45
2022/05/31 01:24:07;;;;;;;2.40;1.97;;;13.00;64.60;;;;;;5007865;28;20464;-45
2022/05/31 01:26:45;;;;;;;3.00;1.70;;;13.00;64.90;;;;;;5006176;28;20478;-46
2022/05/31 01:29:23;;;;;;;2.20;2.00;;;13.00;64.00;;;;;;5024489;28;20847;-43
2022/05/31 01:31:57;;;;;;;3.47;2.00;;;13.10;63.60;;;;;;5023816;28;20490;-45
2022/05/31 01:34:27;;;;;;;2.00;1.67;;;13.10;63.50;;;;;;5023521;28;20573;-45
2022/05/31 01:36:56;;;;;;;2.90;1.70;;;13.10;63.20;;;;;;5022243;28;20463;-44
2022/05/31 01:39:41;;;;;;;3.70;1.93;;;13.10;63.10;;;;;;5008501;28;20543;-45
2022/05/31 01:42:23;;;;;;;1.83;1.73;;;13.20;62.70;;;;;;5009050;28;20463;-45
2022/05/31 01:44:58;;;;;;;1.57;1.47;;;13.20;63.30;;;;;;5023752;28;20549;-45
2022/05/31 01:47:25;;;;;;;1.80;1.70;;;13.20;63.10;;;;;;5008372;28;20474;-45
2022/05/31 01:49:53;;;;;;;4.07;1.67;;;13.20;62.60;;;;;;5005456;28;20804;-45
2022/05/31 01:52:22;;;;;;;1.80;1.70;;;13.30;62.80;;;;;;5008152;28;20466;-45
2022/05/31 01:54:51;;;;;;;5.03;1.60;;;13.30;62.40;;;;;;5024383;28;20491;-45
2022/05/31 01:57:19;;;;;;;2.37;1.90;;;13.30;62.20;;;;;;5024369;28;20463;-45
2022/05/31 01:59:51;;;;;;;2.23;1.90;;;13.30;61.80;;;;;;5008177;28;20964;-44
2022/05/31 02:02:20;;;;;;;3.10;1.90;;;13.30;61.70;;;;;;5021549;28;20970;-45
2022/05/31 02:04:47;;;;;;;2.10;1.60;;;13.30;61.60;;;;;;5022754;28;20466;-45
2022/05/31 02:07:21;;;;;;;3.17;2.00;;;13.40;61.30;;;;;;5025227;28;20548;-45
2022/05/31 02:09:50;;;;;;;3.20;1.80;;;13.40;61.90;;;;;;5025355;28;20479;-44
2022/05/31 02:12:25;;;;;;;2.63;1.90;;;13.40;61.60;;;;;;5024624;28;20874;-44
2022/05/31 02:14:51;;;;;;;4.50;2.10;;;13.40;61.30;;;;;;5026269;28;20484;-44
2022/05/31 02:17:18;;;;;;;3.57;2.33;;;13.40;61.40;;;;;;5028910;28;20480;-44
2022/05/31 02:19:45;;;;;;;5.43;1.90;;;13.40;61.50;;;;;;5029887;28;20467;-44
2022/05/31 02:22:15;;;;;;;2.63;1.70;;;13.40;62.10;;;;;;5027705;28;20541;-44
2022/05/31 02:24:42;;;;;;;2.20;1.43;;;13.40;62.00;;;;;;5030636;28;20499;-45
2022/05/31 02:27:10;;;;;;;2.97;1.83;;;13.40;61.60;;;;;;5030393;28;20458;-45
2022/05/31 02:29:39;;;;;;;2.80;2.23;;;13.40;61.60;;;;;;5030458;28;20859;-44
2022/05/31 02:32:08;;;;;;;5.57;1.60;;;13.40;61.80;;;;;;5026176;28;20489;-44
2022/05/31 02:34:38;;;;;;;1.70;1.60;;;13.40;62.30;;;;;;5028602;28;20490;-48
2022/05/31 02:37:05;;;;;;;2.60;1.87;;;13.40;62.70;;;;;;5029902;28;20914;-45
2022/05/31 02:39:33;;;;;;;2.97;1.93;;;13.50;62.50;;;;;;5028157;28;20463;-45
2022/05/31 02:42:02;;;;;;;2.60;2.27;;;13.50;62.50;;;;;;5030078;28;20960;-43
2022/05/31 02:44:29;;;;;;;3.27;1.73;;;13.50;61.80;;;;;;5028337;28;20837;-43
2022/05/31 02:46:56;;;;;;;3.60;2.07;;;13.50;61.40;;;;;;5027449;28;20462;-43
2022/05/31 02:49:23;;;;;;;2.70;1.60;;;13.50;61.40;;;;;;5010853;28;20455;-43
2022/05/31 02:51:50;;;;;;;2.80;1.87;;;13.50;62.20;;;;;;5028185;28;20458;-43
2022/05/31 02:54:18;;;;;;;2.67;1.83;;;13.50;62.00;;;;;;5027482;28;20501;-43
2022/05/31 02:56:46;;;;;;;1.70;1.60;;;13.50;62.50;;;;;;5026718;28;20549;-43
2022/05/31 02:59:13;;;;;;;2.97;1.93;;;13.50;62.90;;;;;;5009649;28;20462;-43
2022/05/31 03:01:41;;;;;;;4.40;2.00;;;13.50;62.60;;;;;;5008599;28;20474;-43
2022/05/31 03:04:10;;;;;;;3.33;2.07;;;13.50;62.80;;;;;;5026751;28;20490;-42
2022/05/31 03:06:37;;;;;;;1.80;1.70;;;13.60;61.80;;;;;;5024126;28;20463;-42
2022/05/31 03:09:05;;;;;;;2.13;1.90;;;13.60;61.80;;;;;;5027806;28;20470;-42
2022/05/31 03:11:38;;;;;;;2.17;1.97;;;13.60;62.80;;;;;;5023068;28;21257;-43
2022/05/31 03:14:08;;;;;;;4.17;2.40;;;13.60;63.10;;;;;;5021607;28;20499;-43
2022/05/31 03:16:40;;;;;;;2.53;2.00;;;13.60;63.10;;;;;;5024280;28;20462;-43
2022/05/31 03:19:12;;;;;;;2.70;2.07;;;13.60;63.30;;;;;;5025668;28;21026;-42
2022/05/31 03:21:45;;;;;;;2.10;1.90;;;13.50;63.10;;;;;;5024802;28;20911;-43
2022/05/31 03:24:19;;;;;;;1.83;1.63;;;13.50;63.20;;;;;;5026580;28;20479;-43
2022/05/31 03:26:48;;;;;;;2.60;1.80;;;13.50;63.20;;;;;;5025782;28;20473;-43
2022/05/31 03:29:15;;;;;;;3.53;2.00;;;13.50;63.00;;;;;;5026989;28;20569;-43
2022/05/31 03:31:43;;;;;;;3.90;1.90;;;13.50;63.20;;;;;;5024925;28;20499;-43
2022/05/31 03:34:10;;;;;;;3.53;1.90;;;13.50;63.50;;;;;;5025150;28;20495;-43
2022/05/31 03:36:38;;;;;;;2.30;2.07;;;13.50;63.50;;;;;;5007853;28;20509;-42
2022/05/31 03:39:05;;;;;;;2.50;1.80;;;13.40;63.50;;;;;;5008389;28;20549;-42
2022/05/31 03:41:34;;;;;;;3.30;2.27;;;13.40;63.90;;;;;;5009880;28;20557;-42
2022/05/31 03:44:02;;;;;;;1.83;1.73;;;13.40;64.20;;;;;;5007778;28;20533;-42
2022/05/31 03:46:29;;;;;;;2.43;2.13;;;13.50;64.10;;;;;;5026265;28;20517;-42
2022/05/31 03:48:58;;;;;;;2.37;2.17;;;13.40;63.80;;;;;;5027061;28;20473;-42
2022/05/31 03:51:25;;;;;;;2.10;1.90;;;13.40;63.50;;;;;;5025899;28;20509;-42
2022/05/31 03:53:52;;;;;;;3.60;1.77;;;13.40;63.70;;;;;;5006889;28;20940;-42
2022/05/31 03:56:19;;;;;;;3.33;2.00;;;13.40;63.30;;;;;;5009470;28;20901;-42
2022/05/31 03:58:46;;;;;;;2.93;1.80;;;13.40;62.60;;;;;;5009081;28;21108;-42
2022/05/31 04:01:13;;;;;;;2.67;2.00;;;13.40;62.00;;;;;;5013165;28;20469;-43
2022/05/31 04:03:41;;;;;;;2.20;1.90;;;13.40;61.90;;;;;;5007885;28;20467;-43
2022/05/31 04:06:09;;;;;;;1.67;1.57;;;13.40;61.90;;;;;;5008886;28;20462;-43
2022/05/31 04:08:35;;;;;;;3.33;1.80;;;13.40;61.70;;;;;;5006983;28;20466;-43
2022/05/31 04:11:02;;;;;;;5.13;2.03;;;13.40;61.70;;;;;;4982800;28;20479;-43
2022/05/31 04:13:29;;;;;;;2.47;2.17;;;13.40;61.80;;;;;;5004304;28;20459;-43
2022/05/31 04:16:05;;;;;;;1.70;1.60;;;13.40;61.90;;;;;;5022484;28;20460;-43
2022/05/31 04:18:32;;;;;;;2.60;2.40;;;13.40;62.30;;;;;;5027793;28;20522;-43
2022/05/31 04:21:04;;;;;;;2.40;2.20;;;13.40;62.60;;;;;;5026159;28;20512;-44
2022/05/31 04:26:17;;;;;;;2.30;1.80;;;13.40;63.80;;;;;;5009644;28;20474;-43
2022/05/31 04:28:44;;;;;;;2.90;1.87;;;13.40;64.00;;;;;;5023481;28;20474;-43
2022/05/31 04:31:11;;;;;;;2.37;1.67;;;13.40;64.50;;;;;;5023536;28;20487;-43
2022/05/31 04:33:38;;;;;;;3.10;1.73;;;13.40;64.40;;;;;;5024785;28;20468;-43
2022/05/31 04:36:11;;;;;;;3.13;2.30;;;13.40;64.30;;;;;;5006594;28;20477;-43
2022/05/31 04:38:39;;;;;;;3.17;2.10;;;13.40;63.50;;;;;;5022926;28;20494;-43
2022/05/31 04:41:06;;;;;;;2.57;1.90;;;13.40;63.70;;;;;;5020554;28;20471;-43
2022/05/31 04:43:34;;;;;;;3.87;1.70;;;13.40;63.10;;;;;;5024506;28;20538;-43
2022/05/31 04:46:12;;;;;;;3.97;1.50;;;13.40;62.60;;;;;;5025099;28;20471;-42
2022/05/31 04:48:39;;;;;;;2.77;2.33;;;13.40;62.10;;;;;;5003802;28;20488;-42
2022/05/31 04:51:05;;;;;;;3.43;2.60;;;13.40;61.90;;;;;;5024570;28;20482;-42
2022/05/31 04:53:33;;;;;;;3.63;1.83;;;13.40;61.70;;;;;;5022740;28;20910;-42
2022/05/31 04:56:05;;;;;;;2.97;1.90;;;13.50;62.20;;;;;;5023782;28;20517;-43
2022/05/31 04:58:33;;;;;;;4.30;2.00;;;13.50;62.10;;;;;;5010193;28;20565;-43
2022/05/31 05:01:06;;;;;;;1.43;1.33;;;13.50;62.00;;;;;;5016056;28;20463;-43
2022/05/31 05:03:34;;;;;;;2.70;1.63;;;13.50;62.00;;;;;;5021217;28;20468;-43
2022/05/31 05:06:06;;;;;;;3.00;2.07;;;13.60;61.90;;;;;;5026090;28;20466;-42
2022/05/31 05:08:34;;;;;;;4.37;2.07;;;13.60;61.80;;;;;;5022840;28;20469;-42
2022/05/31 05:11:03;;;;;;;3.03;1.63;;;13.60;61.80;;;;;;5024508;28;20497;-42
2022/05/31 05:13:31;;;;;;;4.93;1.90;;;13.70;62.10;;;;;;5021336;28;20561;-42
2022/05/31 05:16:00;;;;;;;7.03;2.80;;;13.70;62.50;;;;;;5022832;28;20493;-42
2022/05/31 05:18:29;;;;;;;2.10;1.73;;;13.70;62.40;;;;;;5021628;28;20993;-42
2022/05/31 05:20:56;;;;;;;2.27;2.03;;;13.70;61.90;;;;;;5008639;28;21121;-42
2022/05/31 05:23:23;;;;;;;3.60;1.97;;;13.80;61.20;;;;;;5020155;28;20558;-43
2022/05/31 05:25:51;;;;;;;3.70;1.93;;;13.80;60.80;;;;;;5024919;28;20838;-43
2022/05/31 05:31:04;;;;;;;1.80;1.70;;;13.90;60.50;;;;;;5022589;28;20533;-43
2022/05/31 05:33:32;;;;;;;2.93;1.97;;;14.00;60.80;;;;;;5026252;28;20953;-43
2022/05/31 05:36:04;;;;;;;3.77;1.70;;;14.00;60.70;;;;;;5023133;28;20494;-43
2022/05/31 05:38:31;;;;;;;2.73;2.00;;;14.10;60.10;;;;;;5022808;28;20463;-43
2022/05/31 05:40:58;;;;;;;3.17;2.00;;;14.20;59.90;;;;;;5025234;28;20463;-43
2022/05/31 05:43:24;;;;;;;2.03;1.77;;;14.20;59.60;;;;;;5001804;28;20466;-43
2022/05/31 05:45:51;;;;;;;1.87;1.63;;;14.20;59.40;;;;;;5007678;28;20553;-43
2022/05/31 05:48:18;;;;;;;2.60;1.87;;;14.20;59.90;;;;;;5023908;28;20482;-43
2022/05/31 05:50:45;;;;;;;2.93;1.77;;;14.20;60.10;;;;;;5025203;28;20503;-43
2022/05/31 05:53:12;;;;;;;3.50;1.60;;;14.20;60.00;;;;;;5026704;28;20877;-42
2022/05/31 05:55:40;;;;;;;1.73;1.63;;;14.20;60.10;;;;;;5013848;28;20503;-42
2022/05/31 05:58:10;;;;;;;4.50;1.90;;;14.30;60.40;;;;;;5013330;28;20463;-42
2022/05/31 06:00:56;;;;;;;2.30;1.97;;;14.30;60.20;;;;;;5026869;28;20458;-43
2022/05/31 06:03:30;;;;;;;4.73;2.00;;;14.40;60.30;;;;;;5026737;28;20859;-43
2022/05/31 06:05:59;;;;;;;2.27;1.60;;;14.40;59.90;;;;;;5026340;28;20466;-43
2022/05/31 06:08:33;;;;;;;5.13;2.13;;;14.40;60.00;;;;;;5010066;28;20517;-43
2022/05/31 06:11:00;;;;;;;3.60;2.20;;;14.40;60.20;;;;;;5009620;28;20466;-43
2022/05/31 06:13:39;;;;;;;3.63;2.27;;;14.40;60.20;;;;;;5025126;28;20462;-42
2022/05/31 06:16:08;;;;;;;3.80;2.33;;;14.50;60.30;;;;;;5025645;28;20877;-43
2022/05/31 06:18:44;;;;;;;2.10;2.00;;;14.50;60.20;;;;;;5010641;28;20474;-43
2022/05/31 06:21:13;;;;;;;3.50;2.03;;;14.60;60.30;;;;;;5022996;28;20471;-43
2022/05/31 06:23:42;;;;;;;7.77;2.67;;;14.70;59.80;;;;;;5027082;28;20466;-43
2022/05/31 06:26:09;;;;;;;2.50;1.90;;;14.60;59.60;;;;;;5027519;28;20478;-43
2022/05/31 06:28:36;;;;;;;2.13;1.93;;;14.80;60.00;;;;;;5028463;28;20646;-43
2022/05/31 06:31:02;;;;;;;4.43;2.33;;;14.80;59.90;;;;;;5025662;28;20493;-44
2022/05/31 06:33:29;;;;;;;3.03;2.30;;;14.90;59.80;;;;;;5024404;28;20463;-43
2022/05/31 06:35:58;;;;;;;2.20;2.00;;;15.00;59.40;;;;;;5026368;28;20497;-43
2022/05/31 06:38:25;;;;;;;4.00;2.20;;;15.20;59.00;;;;;;5026135;28;20876;-43
2022/05/31 06:40:52;;;;;;;3.70;2.60;;;15.30;58.80;;;;;;5026106;28;20463;-43
2022/05/31 06:43:19;;;;;;;1.93;1.70;;;15.30;59.00;;;;;;5012132;28;20508;-43
2022/05/31 06:45:46;;;;;;;2.60;2.13;;;15.40;58.80;;;;;;5028748;28;20906;-43
2022/05/31 06:48:13;;;;;;;5.97;2.10;;;15.50;58.70;;;;;;5012897;28;20517;-44
2022/05/31 06:50:40;;;;;;;7.20;2.40;;;15.50;58.60;;;;;;4994804;28;20467;-43
2022/05/31 06:58:46;;;;;;;3.47;2.20;;;15.90;56.90;;;;;;5027835;28;20729;-44
2022/05/31 07:01:13;;;;;;;14.73;2.83;;;16.00;56.70;;;;;;5021672;28;20973;-44
2022/05/31 07:03:39;;;;;;;4.20;2.07;;;16.00;56.30;;;;;;5010258;28;20456;-44
2022/05/31 07:06:06;;;;;;;2.43;1.63;;;16.00;56.60;;;;;;5022560;28;20878;-44
2022/05/31 07:08:33;;;;;;;4.03;2.23;;;16.00;56.40;;;;;;5029519;28;20455;-43
2022/05/31 07:11:01;;;;;;;2.80;1.77;;;16.00;56.90;;;;;;5010300;28;20914;-43
2022/05/31 07:13:28;;;;;;;1.70;1.50;;;16.00;56.70;;;;;;5008046;28;20471;-43
2022/05/31 07:15:59;;;;;;;3.10;2.10;;;16.00;56.40;;;;;;5008495;28;20483;-43
2022/05/31 07:18:39;;;;;;;4.63;2.00;;;16.00;56.00;;;;;;5027287;28;20469;-43
2022/05/31 07:21:06;;;;;;;4.50;1.70;;;16.00;56.30;;;;;;5024004;28;20461;-43
2022/05/31 07:23:33;;;;;;;2.60;2.10;;;16.00;56.40;;;;;;5010100;28;20459;-43
2022/05/31 07:25:59;;;;;;;3.10;1.90;;;16.00;56.60;;;;;;5026236;28;20490;-43
2022/05/31 07:28:46;;;;;;;2.70;2.03;;;16.10;56.70;;;;;;5022067;28;20465;-43
2022/05/31 07:31:13;;;;;;;1.77;1.67;;;16.30;57.30;;;;;;5026985;28;21431;-43
2022/05/31 07:33:40;;;;;;;4.93;1.90;;;16.60;56.50;;;;;;5027316;28;20464;-43
2022/05/31 07:36:08;;;;;;;2.50;2.00;;;16.80;56.40;;;;;;5004692;28;20527;-44
2022/05/31 07:38:35;;;;;;;1.90;1.70;;;16.80;55.30;;;;;;5011092;28;20976;-43
2022/05/31 07:41:02;;;;;;;2.80;2.03;;;16.90;55.40;;;;;;5026563;28;20590;-43
2022/05/31 07:43:29;;;;;;;3.67;2.70;;;16.90;55.30;;;;;;5027841;28;20570;-43
2022/05/31 07:46:05;;;;;;;4.13;3.20;;;17.10;54.90;;;;;;5010590;28;20490;-43
2022/05/31 07:48:34;;;;;;;3.63;2.20;;;17.30;54.70;;;;;;5025094;28;20505;-43
2022/05/31 07:51:01;;;;;;;2.87;2.30;;;17.40;54.80;;;;;;5027823;28;20583;-43
2022/05/31 07:53:28;;;;;;;2.33;2.13;;;17.50;54.40;;;;;;5022650;28;20529;-43
2022/05/31 07:56:10;;;;;;;3.83;2.90;;;17.60;53.60;;;;;;5024359;28;20491;-43
2022/05/31 07:58:39;;;;;;;5.27;2.43;;;17.60;52.70;;;;;;5023601;28;20486;-42
2022/05/31 08:01:13;;;;;;;4.53;2.23;;;17.50;52.90;;;;;;5025080;28;20913;-44
2022/05/31 08:03:40;;;;;;;3.27;2.10;;;17.50;52.90;;;;;;5026871;28;20458;-43
2022/05/31 08:06:10;;;;;;;4.17;2.37;;;17.50;53.00;;;;;;5009461;28;20463;-43
2022/05/31 08:08:37;;;;;;;3.87;2.37;;;17.60;52.90;;;;;;5027041;28;20526;-43
2022/05/31 08:11:13;;;;;;;4.00;2.40;;;17.80;52.90;;;;;;5023124;28;20731;-43
2022/05/31 08:13:40;;;;;;;4.93;2.23;;;17.90;52.00;;;;;;5022184;28;20546;-43
2022/05/31 08:16:10;;;;;;;3.13;2.30;;;18.10;51.90;;;;;;5025182;28;20991;-42
2022/05/31 08:18:38;;;;;;;2.80;2.00;;;18.30;51.60;;;;;;5025443;28;20465;-42
2022/05/31 08:21:08;;;;;;;1.83;1.73;;;18.50;50.70;;;;;;5023558;28;21129;-43
2022/05/31 08:23:36;;;;;;;2.87;2.20;;;18.60;50.90;;;;;;5009626;28;20495;-43
2022/05/31 08:26:03;;;;;;;3.37;2.23;;;18.90;50.50;;;;;;5022915;28;20463;-43
2022/05/31 08:28:32;;;;;;;5.57;2.10;;;19.00;50.30;;;;;;5023300;28;20487;-43
2022/05/31 08:31:02;;;;;;;3.80;2.30;;;19.00;50.20;;;;;;5026133;28;20513;-43
2022/05/31 08:33:29;;;;;;;1.87;1.77;;;19.10;50.40;;;;;;5004929;28;20685;-43
2022/05/31 08:35:56;;;;;;;3.53;2.27;;;19.30;49.90;;;;;;5021952;28;20567;-43
2022/05/31 08:38:31;;;;;;;3.13;1.90;;;19.40;49.30;;;;;;5021741;28;20474;-43
2022/05/31 08:41:27;;;;;;;2.87;2.37;;;19.40;49.60;;;;;;5026291;28;21406;-42
2022/05/31 08:44:28;;;;;;;2.87;1.90;;;19.50;49.20;;;;;;5005660;28;20451;-42
2022/05/31 08:47:16;;;;;;;4.50;2.00;;;19.60;49.10;;;;;;5006927;28;20486;-42
2022/05/31 08:53:06;;;;;;;2.67;2.47;;;19.80;48.70;;;;;;5028095;28;20467;-44
2022/05/31 08:58:46;;;;;;;3.30;2.10;;;19.80;48.60;;;;;;5024704;28;20460;-43
2022/05/31 09:01:18;;;;;;;4.33;2.60;;;19.90;48.60;;;;;;5022064;28;20455;-44
2022/05/31 09:04:13;;;;;;;3.87;2.50;;;20.00;48.50;;;;;;5025068;28;20454;-44
2022/05/31 09:06:45;;;;;;;3.03;2.23;;;20.30;48.30;;;;;;5026722;28;20460;-44
2022/05/31 09:09:19;;;;;;;2.70;2.07;;;20.50;48.40;;;;;;5011375;28;20464;-44
2022/05/31 09:12:14;;;;;;;2.17;1.97;;;20.70;47.70;;;;;;5028050;28;20922;-45
2022/05/31 09:14:51;;;;;;;3.33;2.37;;;20.90;47.00;;;;;;5010311;28;20521;-44
2022/05/31 09:17:33;;;;;;;3.47;2.10;;;21.20;46.40;;;;;;5024484;28;20469;-44
2022/05/31 09:20:14;;;;;;;4.60;2.33;;;21.40;46.10;;;;;;5009142;28;20542;-44
2022/05/31 09:22:44;;;;;;;2.30;2.10;;;21.60;46.00;;;;;;5026160;28;20586;-44
2022/05/31 09:25:13;;;;;;;2.43;1.83;;;21.60;46.00;;;;;;5022340;28;20540;-44
2022/05/31 09:27:46;;;;;;;4.43;1.97;;;21.50;46.40;;;;;;5024299;28;20770;-44
2022/05/31 09:30:36;;;;;;;4.83;2.30;;;21.50;46.80;;;;;;5009738;28;20467;-44
2022/05/31 09:33:26;;;;;;;3.13;1.93;;;21.50;46.00;;;;;;5023966;28;20467;-44
2022/05/31 09:35:59;;;;;;;5.30;2.10;;;21.50;46.10;;;;;;5006737;28;20493;-44
2022/05/31 09:38:44;;;;;;;5.13;2.43;;;21.40;46.30;;;;;;5021297;28;20463;-45
2022/05/31 09:41:24;;;;;;;3.60;2.40;;;21.30;45.90;;;;;;5010002;28;20454;-44
2022/05/31 09:43:57;;;;;;;5.13;2.00;;;21.30;45.30;;;;;;5023938;28;20459;-45
2022/05/31 09:46:37;;;;;;;3.13;1.60;;;21.50;44.90;;;;;;5022149;28;20464;-45
2022/05/31 09:49:36;;;;;;;3.50;2.20;;;21.70;44.70;;;;;;5021646;28;20915;-45
2022/05/31 09:52:08;;;;;;;3.30;2.00;;;22.00;44.40;;;;;;5024117;28;20451;-45
2022/05/31 09:58:02;;;;;;;4.30;2.27;;;22.00;44.70;;;;;;5027919;28;20447;-45
2022/05/31 10:00:29;;;;;;;4.73;2.00;;;22.00;44.80;;;;;;5005026;28;20492;-45
2022/05/31 10:03:10;;;;;;;5.50;1.77;;;21.90;45.00;;;;;;5022793;28;20465;-43
2022/05/31 10:05:39;;;;;;;4.20;2.13;;;21.90;45.10;;;;;;5023161;28;20566;-44
2022/05/31 10:08:16;;;;;;;1.80;1.70;;;22.00;45.30;;;;;;5026417;28;20960;-44
2022/05/31 10:10:48;;;;;;;2.60;2.10;;;22.00;45.50;;;;;;5016681;28;21152;-44
2022/05/31 10:13:34;;;;;;;4.00;2.30;;;22.20;45.00;;;;;;5022625;28;20467;-44
2022/05/31 10:16:22;;;;;;;4.90;2.03;;;22.20;44.50;;;;;;5005856;28;20490;-44
2022/05/31 10:18:55;;;;;;;3.50;1.73;;;22.10;44.60;;;;;;5009980;28;20890;-45
2022/05/31 10:21:33;;;;;;;2.73;1.87;;;22.40;45.10;;;;;;5005818;28;20562;-44
2022/05/31 10:24:17;;;;;;;3.87;2.40;;;22.80;44.10;;;;;;5005388;28;20490;-44
2022/05/31 10:27:01;;;;;;;2.40;2.20;;;23.00;43.50;;;;;;5022703;28;21050;-44
2022/05/31 10:29:33;;;;;;;2.13;1.93;;;23.20;43.20;;;;;;5006724;28;20972;-44
2022/05/31 10:32:25;;;;;;;3.90;2.47;;;23.30;43.80;;;;;;5024090;28;20496;-44
2022/05/31 10:35:05;;;;;;;2.10;1.80;;;23.20;44.00;;;;;;5020807;28;20832;-44
2022/05/31 10:37:32;;;;;;;2.80;2.53;;;23.20;44.30;;;;;;5007250;28;20643;-44
2022/05/31 10:40:07;;;;;;;2.70;1.57;;;23.30;44.00;;;;;;5024684;28;20459;-44
2022/05/31 10:42:41;;;;;;;2.80;1.80;;;23.40;43.50;;;;;;5024469;28;20497;-44
2022/05/31 10:45:15;;;;;;;5.13;1.83;;;23.40;43.70;;;;;;5028484;28;20497;-44
2022/05/31 10:47:42;;;;;;;2.80;1.53;;;23.40;43.30;;;;;;5004234;28;20890;-45
2022/05/31 10:50:09;;;;;;;1.70;1.60;;;23.20;43.20;;;;;;5024299;28;20447;-44
2022/05/31 10:53:06;;;;;;;2.40;2.00;;;23.10;43.00;;;;;;5008428;28;20549;-44
2022/05/31 10:55:36;;;;;;;2.30;1.80;;;23.00;43.00;;;;;;5023843;28;20475;-45
2022/05/31 10:58:06;;;;;;;4.20;1.90;;;22.90;42.90;;;;;;5027389;28;20466;-44
2022/05/31 11:00:40;;;;;;;2.73;1.70;;;22.70;42.90;;;;;;5023533;28;20463;-45
2022/05/31 11:03:22;;;;;;;2.30;2.10;;;22.60;42.50;;;;;;5026693;28;20467;-45
2022/05/31 11:06:13;;;;;;;4.40;2.10;;;22.50;42.70;;;;;;5028119;28;20463;-44
2022/05/31 11:11:47;;;;;;;2.23;1.80;;;22.30;43.40;;;;;;5024116;28;21003;-44
2022/05/31 11:14:19;;;;;;;2.23;1.67;;;22.20;43.40;;;;;;5028239;28;20468;-45
2022/05/31 11:16:46;;;;;;;2.20;1.90;;;22.20;43.60;;;;;;5023673;28;20483;-44
2022/05/31 11:19:35;;;;;;;5.07;1.53;;;22.10;43.40;;;;;;5025072;28;20463;-44
2022/05/31 11:22:36;;;;;;;1.93;1.63;;;22.10;42.90;;;;;;5027353;28;20463;-44
2022/05/31 11:25:37;;;;;;;2.73;1.63;;;22.00;43.20;;;;;;5023929;28;20472;-44
2022/05/31 11:28:18;;;;;;;3.03;1.83;;;21.90;42.50;;;;;;5004778;28;20505;-44
2022/05/31 11:31:05;;;;;;;2.33;1.83;;;21.90;43.00;;;;;;5022765;28;20482;-44
2022/05/31 11:33:54;;;;;;;4.27;2.10;;;21.70;43.10;;;;;;5016066;28;20459;-44
2022/05/31 11:36:36;;;;;;;1.57;1.47;;;21.70;43.50;;;;;;5026123;28;20487;-44
2022/05/31 11:39:05;;;;;;;2.83;1.77;;;21.70;43.40;;;;;;5026108;28;20449;-43
2022/05/31 11:41:53;;;;;;;1.70;1.60;;;21.60;43.20;;;;;;5022534;28;20459;-43
2022/05/31 11:44:41;;;;;;;2.57;1.57;;;21.50;43.20;;;;;;5022493;28;20940;-43
2022/05/31 11:47:15;;;;;;;2.20;1.90;;;21.40;43.80;;;;;;5017349;28;20965;-43
2022/05/31 11:49:51;;;;;;;1.80;1.70;;;21.40;43.70;;;;;;5014901;28;20458;-42
2022/05/31 11:52:34;;;;;;;3.67;2.10;;;21.50;44.20;;;;;;5014190;28;20466;-42
2022/05/31 11:55:26;;;;;;;2.40;1.60;;;21.60;43.70;;;;;;5017724;28;20510;-42
2022/05/31 11:58:16;;;;;;;2.07;1.77;;;21.70;42.60;;;;;;5025272;28;20527;-42
2022/05/31 12:01:00;;;;;;;1.60;1.40;;;21.80;40.30;;;;;;5023281;28;20469;-42
2022/05/31 12:03:36;;;;;;;2.50;1.50;;;21.80;39.80;;;;;;5024967;28;20999;-42
2022/05/31 12:06:32;;;;;;;1.27;1.17;;;21.80;40.70;;;;;;5020041;28;20514;-42
2022/05/31 12:09:08;;;;;;;1.87;1.20;;;21.90;43.10;;;;;;5020586;28;20977;-42
2022/05/31 12:11:57;;;;;;;2.37;1.80;;;21.90;39.60;;;;;;5004636;28;20471;-43
2022/05/31 12:14:25;;;;;;;3.00;1.40;;;21.90;39.60;;;;;;5009945;28;20469;-42
2022/05/31 12:16:53;;;;;;;5.53;1.60;;;21.90;40.20;;;;;;5024164;28;20483;-42
2022/05/31 12:19:38;;;;;;;2.17;1.40;;;21.90;39.00;;;;;;5023941;28;20543;-43
2022/05/31 12:22:19;;;;;;;5.80;1.60;;;21.90;39.60;;;;;;5007705;28;20463;-43
2022/05/31 12:24:59;;;;;;;2.40;1.90;;;22.00;40.10;;;;;;5025551;28;20968;-43
2022/05/31 12:27:37;;;;;;;2.13;1.60;;;22.00;39.30;;;;;;5024274;28;20546;-42
2022/05/31 12:30:24;;;;;;;1.40;1.30;;;22.10;39.00;;;;;;4990225;28;20521;-43
2022/05/31 12:32:54;;;;;;;1.60;1.47;;;22.20;40.30;;;;;;5027337;28;20534;-43
2022/05/31 12:35:29;;;;;;;2.50;1.47;;;22.30;39.40;;;;;;5026873;28;20451;-42
2022/05/31 12:38:02;;;;;;;1.20;1.10;;;22.40;38.60;;;;;;5022952;28;20493;-43
2022/05/31 12:40:36;;;;;;;1.20;1.10;;;22.50;38.20;;;;;;4997576;28;20459;-43
2022/05/31 12:43:28;;;;;;;1.50;1.40;;;22.50;38.20;;;;;;5025872;28;20468;-43
2022/05/31 12:45:55;;;;;;;4.30;1.60;;;22.50;38.60;;;;;;5009460;28;20467;-43
2022/05/31 12:48:26;;;;;;;1.40;1.30;;;22.50;38.90;;;;;;5019913;28;20451;-42
2022/05/31 12:50:56;;;;;;;1.73;1.63;;;22.50;38.50;;;;;;5004122;28;20488;-43
2022/05/31 12:53:47;;;;;;;2.13;1.70;;;22.50;38.00;;;;;;5017607;28;22487;-43
2022/05/31 12:56:34;;;;;;;4.20;1.70;;;22.40;38.60;;;;;;5011239;28;20570;-43
2022/05/31 12:59:03;;;;;;;1.50;1.40;;;22.30;39.50;;;;;;5025453;28;20450;-43
2022/05/31 13:01:29;;;;;;;1.87;1.23;;;22.40;39.30;;;;;;5006731;28;20463;-43
2022/05/31 13:04:25;;;;;;;4.57;1.90;;;22.40;39.10;;;;;;5026276;28;20451;-43
2022/05/31 13:07:11;;;;;;;1.73;1.50;;;22.50;37.80;;;;;;5020335;28;20455;-43
2022/05/31 13:09:41;;;;;;;1.60;1.50;;;22.50;39.90;;;;;;5018012;28;20550;-42
2022/05/31 13:21:30;;;;;;;2.47;1.70;;;22.70;38.30;;;;;;4908028;29;21550;-43
2022/05/31 13:24:16;;;;;;;5.40;1.67;;;22.70;37.10;;;;;;5012530;28;20467;-43
2022/05/31 13:26:44;;;;;;;2.73;1.60;;;22.50;37.80;;;;;;5018815;28;20455;-43
2022/05/31 13:29:13;;;;;;;2.00;1.47;;;22.50;38.50;;;;;;5019015;28;20456;-43
2022/05/31 13:31:53;;;;;;;2.70;1.30;;;22.50;38.00;;;;;;5006856;28;20479;-43
2022/05/31 13:34:36;;;;;;;2.27;1.40;;;22.40;38.80;;;;;;5021744;28;20463;-43
2022/05/31 13:37:14;;;;;;;4.90;1.70;;;22.40;38.30;;;;;;5024997;28;20486;-43
2022/05/31 13:39:44;;;;;;;2.50;1.30;;;22.30;38.30;;;;;;5024738;28;20543;-43
2022/05/31 13:42:44;;;;;;;2.30;1.53;;;22.30;39.30;;;;;;5021872;28;20456;-43
2022/05/31 13:45:17;;;;;;;4.67;1.60;;;22.20;39.40;;;;;;4980016;28;21273;-43
2022/05/31 13:47:54;;;;;;;2.03;1.20;;;22.20;39.50;;;;;;5024461;28;20463;-42
2022/05/31 13:50:25;;;;;;;2.87;1.37;;;22.10;39.50;;;;;;5024801;28;20554;-43